Time;durP1;ratioP1;P1;durP2;ratioP2;P2;SDS_P1;SDS_P2;PMS_P1;PMS_P2;Temp;Humidity;BMP_temperature;BMP_pressure;BME280_temperature;BME280_humidity;BME280_pressure;Samples;Min_cycle;Max_cycle;Signal;HPM_P1;HPM_P2
2024/04/13 00:00:17;;;;;;;12.43;4.50;;;;;;;;;;5357089;26;20248;-54
2024/04/13 00:02:42;;;;;;;4.07;3.77;;;;;;;;;;5372625;26;20519;-54
2024/04/13 00:05:08;;;;;;;6.87;4.17;;;;;;;;;;5353597;26;20460;-54
2024/04/13 00:07:33;;;;;;;5.30;4.30;;;;;;;;;;5337872;26;20292;-53
2024/04/13 00:09:59;;;;;;;5.33;4.50;;;;;;;;;;5335584;26;20816;-54
2024/04/13 00:12:25;;;;;;;9.17;4.50;;;;;;;;;;5337270;26;20273;-54
2024/04/13 00:14:54;;;;;;;5.43;4.37;;;;;;;;;;5337703;26;20280;-54
2024/04/13 00:17:20;;;;;;;4.77;4.27;;;;;;;;;;5337947;26;20496;-54
2024/04/13 00:19:45;;;;;;;7.60;4.37;;;;;;;;;;5337014;26;20805;-53
2024/04/13 00:22:12;;;;;;;4.10;3.70;;;;;;;;;;5336784;26;20266;-53
2024/04/13 00:24:41;;;;;;;5.30;4.27;;;;;;;;;;5349614;26;20249;-51
2024/04/13 00:27:06;;;;;;;4.03;3.63;;;;;;;;;;5370977;26;20463;-53
2024/04/13 00:29:31;;;;;;;5.53;4.63;;;;;;;;;;5360980;26;20577;-52
2024/04/13 00:31:57;;;;;;;4.97;4.17;;;;;;;;;;5336155;26;20273;-53
2024/04/13 00:34:22;;;;;;;5.40;4.40;;;;;;;;;;5336858;26;20715;-54
2024/04/13 00:36:49;;;;;;;6.23;3.77;;;;;;;;;;5337576;26;20245;-53
2024/04/13 00:39:15;;;;;;;6.03;4.60;;;;;;;;;;5351462;26;20802;-53
2024/04/13 00:41:41;;;;;;;8.70;4.67;;;;;;;;;;5361150;26;20554;-53
2024/04/13 00:44:07;;;;;;;5.33;3.87;;;;;;;;;;5338865;26;20321;-53
2024/04/13 00:46:34;;;;;;;5.17;4.00;;;;;;;;;;5360163;26;20271;-54
2024/04/13 00:49:00;;;;;;;4.53;3.83;;;;;;;;;;5340187;26;20532;-54
2024/04/13 00:51:27;;;;;;;36.37;4.23;;;;;;;;;;5336099;26;21000;-54
2024/04/13 00:53:53;;;;;;;7.23;4.60;;;;;;;;;;5336763;26;20472;-53
2024/04/13 00:56:20;;;;;;;6.57;4.87;;;;;;;;;;5337064;26;20560;-53
2024/04/13 00:58:45;;;;;;;6.33;4.57;;;;;;;;;;5363161;26;20646;-56
2024/04/13 01:01:13;;;;;;;4.40;4.00;;;;;;;;;;5335819;26;20898;-53
2024/04/13 01:03:43;;;;;;;6.47;3.80;;;;;;;;;;5335134;26;20755;-53
2024/04/13 01:06:10;;;;;;;7.07;5.10;;;;;;;;;;5336628;26;20831;-55
2024/04/13 01:08:35;;;;;;;5.77;3.83;;;;;;;;;;5336188;26;20468;-54
2024/04/13 01:11:03;;;;;;;4.27;3.87;;;;;;;;;;5335506;26;21127;-56
2024/04/13 01:13:30;;;;;;;10.67;4.33;;;;;;;;;;5336305;26;20364;-54
2024/04/13 01:15:58;;;;;;;10.73;4.43;;;;;;;;;;5336474;26;20480;-57
2024/04/13 01:18:24;;;;;;;14.10;4.77;;;;;;;;;;5336430;26;20629;-53
2024/04/13 01:20:49;;;;;;;4.57;4.00;;;;;;;;;;5335690;26;21044;-54
2024/04/13 01:23:15;;;;;;;4.80;4.40;;;;;;;;;;5336082;26;20715;-52
2024/04/13 01:25:41;;;;;;;4.93;3.97;;;;;;;;;;5336980;26;20289;-53
2024/04/13 01:28:07;;;;;;;5.03;4.53;;;;;;;;;;5336480;26;20488;-55
2024/04/13 01:30:34;;;;;;;6.70;4.43;;;;;;;;;;5335589;26;20359;-54
2024/04/13 01:32:59;;;;;;;4.83;4.33;;;;;;;;;;5336448;26;20472;-54
2024/04/13 01:35:27;;;;;;;5.07;4.57;;;;;;;;;;5336126;26;20976;-54
2024/04/13 01:37:54;;;;;;;5.80;4.30;;;;;;;;;;5349076;26;20279;-53
2024/04/13 01:40:20;;;;;;;6.27;4.60;;;;;;;;;;5335154;26;20933;-53
2024/04/13 01:42:48;;;;;;;5.67;4.80;;;;;;;;;;5336514;26;20469;-53
2024/04/13 01:45:13;;;;;;;4.70;4.30;;;;;;;;;;5335776;26;20238;-53
2024/04/13 01:47:39;;;;;;;8.63;4.87;;;;;;;;;;5336335;26;20532;-56
2024/04/13 01:50:06;;;;;;;6.80;5.20;;;;;;;;;;5334933;26;20827;-54
2024/04/13 01:52:32;;;;;;;8.87;5.20;;;;;;;;;;5336274;26;20565;-54
2024/04/13 01:54:58;;;;;;;9.77;4.73;;;;;;;;;;5361258;26;20334;-54
2024/04/13 01:57:23;;;;;;;5.50;4.37;;;;;;;;;;5336345;26;20253;-56
2024/04/13 01:59:48;;;;;;;7.77;4.37;;;;;;;;;;5333595;26;20718;-55
2024/04/13 02:02:14;;;;;;;6.70;5.47;;;;;;;;;;5332574;26;20705;-54
2024/04/13 02:04:39;;;;;;;4.77;4.00;;;;;;;;;;5335980;26;20241;-54
2024/04/13 02:07:05;;;;;;;8.67;5.03;;;;;;;;;;5335977;26;20782;-54
2024/04/13 02:09:33;;;;;;;5.23;4.37;;;;;;;;;;5335492;26;20316;-56
2024/04/13 02:11:58;;;;;;;4.17;3.70;;;;;;;;;;5334922;26;20273;-55
2024/04/13 02:14:23;;;;;;;7.13;4.80;;;;;;;;;;5333744;26;20824;-53
2024/04/13 02:16:50;;;;;;;6.43;4.50;;;;;;;;;;5335863;26;20233;-55
2024/04/13 02:19:15;;;;;;;5.70;4.40;;;;;;;;;;5336144;26;20241;-54
2024/04/13 02:21:41;;;;;;;6.20;4.67;;;;;;;;;;5333250;26;20870;-54
2024/04/13 02:24:07;;;;;;;6.57;4.70;;;;;;;;;;5333711;26;20342;-55
2024/04/13 02:26:32;;;;;;;8.07;4.10;;;;;;;;;;5335148;26;20629;-56
2024/04/13 02:28:58;;;;;;;3.83;3.50;;;;;;;;;;5335333;26;20292;-54
2024/04/13 02:31:25;;;;;;;4.90;4.00;;;;;;;;;;5334233;26;20649;-54
2024/04/13 02:33:51;;;;;;;7.23;4.53;;;;;;;;;;5335158;26;20747;-54
2024/04/13 02:36:16;;;;;;;9.43;4.10;;;;;;;;;;5335339;26;20865;-54
2024/04/13 02:38:44;;;;;;;8.83;4.10;;;;;;;;;;5335337;26;20487;-54
2024/04/13 02:41:09;;;;;;;6.37;5.00;;;;;;;;;;5361160;26;20273;-55
2024/04/13 02:43:35;;;;;;;5.43;4.40;;;;;;;;;;5334813;26;20472;-53
2024/04/13 02:46:09;;;;;;;9.00;5.20;;;;;;;;;;5335073;26;20254;-55
2024/04/13 02:48:38;;;;;;;4.67;3.87;;;;;;;;;;5358710;26;20475;-53
2024/04/13 02:51:03;;;;;;;5.93;4.20;;;;;;;;;;5336388;26;21337;-54
2024/04/13 02:53:30;;;;;;;4.20;3.80;;;;;;;;;;5335227;26;20524;-55
2024/04/13 02:55:55;;;;;;;4.10;3.77;;;;;;;;;;5334835;26;20250;-55
2024/04/13 02:58:21;;;;;;;3.97;3.60;;;;;;;;;;5335053;26;20591;-53
2024/04/13 03:00:50;;;;;;;8.70;4.30;;;;;;;;;;5334356;26;20311;-53
2024/04/13 03:03:16;;;;;;;3.87;3.50;;;;;;;;;;5356251;26;20248;-55
2024/04/13 03:05:41;;;;;;;4.50;4.10;;;;;;;;;;5369849;26;20591;-52
2024/04/13 03:08:07;;;;;;;6.40;4.40;;;;;;;;;;5350701;26;20273;-54
2024/04/13 03:10:32;;;;;;;7.70;4.80;;;;;;;;;;5333905;26;20438;-53
2024/04/13 03:12:59;;;;;;;6.93;4.63;;;;;;;;;;5334725;26;20233;-54
2024/04/13 03:15:26;;;;;;;6.60;4.57;;;;;;;;;;5334997;26;20310;-54
2024/04/13 03:17:51;;;;;;;5.30;4.80;;;;;;;;;;5334304;26;21155;-55
2024/04/13 03:20:17;;;;;;;12.67;5.93;;;;;;;;;;5333936;26;20491;-54
2024/04/13 03:22:43;;;;;;;7.97;4.90;;;;;;;;;;5334440;26;20245;-54
2024/04/13 03:25:10;;;;;;;11.40;4.60;;;;;;;;;;5334559;26;20818;-53
2024/04/13 03:27:35;;;;;;;4.97;4.47;;;;;;;;;;5334105;26;20468;-52
2024/04/13 03:30:02;;;;;;;7.33;5.07;;;;;;;;;;5337122;26;20586;-53
2024/04/13 03:32:28;;;;;;;8.73;4.80;;;;;;;;;;5345840;26;20734;-54
2024/04/13 03:34:53;;;;;;;6.67;5.83;;;;;;;;;;5365339;26;20470;-55
2024/04/13 03:37:20;;;;;;;8.33;6.40;;;;;;;;;;5337670;26;20237;-54
2024/04/13 03:39:45;;;;;;;9.07;5.80;;;;;;;;;;5337757;26;20404;-54
2024/04/13 03:42:11;;;;;;;8.03;4.87;;;;;;;;;;5337110;26;20506;-54
2024/04/13 03:44:36;;;;;;;6.97;5.10;;;;;;;;;;5338519;26;20245;-56
2024/04/13 03:47:02;;;;;;;9.03;5.60;;;;;;;;;;5338114;26;20696;-54
2024/04/13 03:49:28;;;;;;;9.43;7.10;;;;;;;;;;5337687;26;20250;-53
2024/04/13 03:51:56;;;;;;;9.07;5.30;;;;;;;;;;5336841;26;20320;-55
2024/04/13 03:54:22;;;;;;;7.90;4.67;;;;;;;;;;5338124;26;21177;-53
2024/04/13 03:56:48;;;;;;;8.10;5.77;;;;;;;;;;5337511;26;20594;-54
2024/04/13 03:59:14;;;;;;;6.60;4.60;;;;;;;;;;5337963;26;20468;-55
2024/04/13 04:01:40;;;;;;;5.37;4.87;;;;;;;;;;5336409;26;20507;-54
2024/04/13 04:04:05;;;;;;;9.60;5.13;;;;;;;;;;5337709;26;20911;-54
2024/04/13 04:06:30;;;;;;;11.70;4.50;;;;;;;;;;5337767;26;20284;-54
2024/04/13 04:08:56;;;;;;;6.80;4.57;;;;;;;;;;5337933;26;20317;-54
2024/04/13 04:11:22;;;;;;;11.47;4.20;;;;;;;;;;5336547;26;20277;-54
2024/04/13 04:13:51;;;;;;;6.40;5.23;;;;;;;;;;5343655;26;20296;-53
2024/04/13 04:16:16;;;;;;;7.80;5.23;;;;;;;;;;5354325;26;20240;-54
2024/04/13 04:18:43;;;;;;;4.57;4.17;;;;;;;;;;5341770;26;20592;-54
2024/04/13 04:21:09;;;;;;;7.47;4.90;;;;;;;;;;5341970;26;20273;-56
2024/04/13 04:23:35;;;;;;;6.27;4.40;;;;;;;;;;5332791;26;20480;-54
2024/04/13 04:26:01;;;;;;;5.50;3.93;;;;;;;;;;5337507;26;20254;-54
2024/04/13 04:28:27;;;;;;;5.57;5.00;;;;;;;;;;5337528;26;20273;-55
2024/04/13 04:30:52;;;;;;;6.30;4.37;;;;;;;;;;5335332;26;20515;-55
2024/04/13 04:33:18;;;;;;;4.97;4.30;;;;;;;;;;5332750;26;20241;-52
2024/04/13 04:35:51;;;;;;;7.03;4.80;;;;;;;;;;5343800;26;20237;-52
2024/04/13 04:38:16;;;;;;;9.10;4.00;;;;;;;;;;5337364;26;20464;-52
2024/04/13 04:40:41;;;;;;;21.43;5.07;;;;;;;;;;5334566;26;21000;-54
2024/04/13 04:43:09;;;;;;;7.90;4.40;;;;;;;;;;5335916;26;20246;-54
2024/04/13 04:45:56;;;;;;;5.87;4.53;;;;;;;;;;5336462;26;20876;-55
2024/04/13 04:48:22;;;;;;;5.53;4.80;;;;;;;;;;5334209;26;20468;-53
2024/04/13 04:50:54;;;;;;;4.73;4.20;;;;;;;;;;5345414;26;20272;-54
2024/04/13 04:53:25;;;;;;;4.73;4.33;;;;;;;;;;5336781;26;20249;-54
2024/04/13 04:55:51;;;;;;;4.30;3.90;;;;;;;;;;5336763;26;21091;-53
2024/04/13 04:58:17;;;;;;;5.20;3.80;;;;;;;;;;5336982;26;20464;-54
2024/04/13 05:00:43;;;;;;;13.93;4.33;;;;;;;;;;5338897;26;20499;-52
2024/04/13 05:03:08;;;;;;;4.40;4.07;;;;;;;;;;5336710;26;20249;-55
2024/04/13 05:05:33;;;;;;;4.57;3.83;;;;;;;;;;5337036;26;20245;-53
2024/04/13 05:07:59;;;;;;;5.10;4.57;;;;;;;;;;5338486;26;20253;-54
2024/04/13 05:10:26;;;;;;;4.67;3.57;;;;;;;;;;5335734;26;20488;-55
2024/04/13 05:12:52;;;;;;;3.90;3.60;;;;;;;;;;5337994;26;20607;-53
2024/04/13 05:15:17;;;;;;;5.33;3.63;;;;;;;;;;5343450;26;20292;-53
2024/04/13 05:17:43;;;;;;;4.40;4.00;;;;;;;;;;5340155;26;20355;-52
2024/04/13 05:20:11;;;;;;;3.90;3.60;;;;;;;;;;5338384;26;20268;-54
2024/04/13 05:22:37;;;;;;;5.27;4.37;;;;;;;;;;5345308;26;20472;-54
2024/04/13 05:25:03;;;;;;;4.77;4.40;;;;;;;;;;5341398;26;20516;-52
2024/04/13 05:27:29;;;;;;;6.10;3.80;;;;;;;;;;5361151;26;20272;-53
2024/04/13 05:29:55;;;;;;;6.70;4.30;;;;;;;;;;5338410;26;20578;-53
2024/04/13 05:32:23;;;;;;;4.23;3.83;;;;;;;;;;5336868;26;20893;-53
2024/04/13 05:34:50;;;;;;;7.10;4.43;;;;;;;;;;5348661;26;20525;-53
2024/04/13 05:37:15;;;;;;;4.27;3.97;;;;;;;;;;5358170;26;20497;-54
2024/04/13 05:39:41;;;;;;;7.27;4.27;;;;;;;;;;5359400;26;20464;-53
2024/04/13 05:42:06;;;;;;;6.00;4.30;;;;;;;;;;5339115;26;20348;-55
2024/04/13 05:44:32;;;;;;;10.53;3.73;;;;;;;;;;5343032;26;20694;-53
2024/04/13 05:46:58;;;;;;;9.77;4.43;;;;;;;;;;5353781;26;20266;-53
2024/04/13 05:49:23;;;;;;;4.83;4.30;;;;;;;;;;5351209;26;20912;-54
2024/04/13 05:51:49;;;;;;;5.40;3.73;;;;;;;;;;5344643;26;20296;-54
2024/04/13 05:54:14;;;;;;;6.27;4.80;;;;;;;;;;5338228;26;20242;-53
2024/04/13 05:56:40;;;;;;;4.17;3.77;;;;;;;;;;5336662;26;20292;-54
2024/04/13 05:59:05;;;;;;;5.10;3.40;;;;;;;;;;5338541;26;20246;-55
2024/04/13 06:01:31;;;;;;;5.77;4.30;;;;;;;;;;5348136;26;20279;-54
2024/04/13 06:03:56;;;;;;;10.53;4.50;;;;;;;;;;5349397;26;20257;-56
2024/04/13 06:06:23;;;;;;;4.77;3.73;;;;;;;;;;5339979;26;20253;-55
2024/04/13 06:08:48;;;;;;;4.50;3.70;;;;;;;;;;5344705;26;20240;-54
2024/04/13 06:11:14;;;;;;;3.87;3.50;;;;;;;;;;5337199;26;20543;-54
2024/04/13 06:13:41;;;;;;;4.97;3.70;;;;;;;;;;5337813;26;20246;-55
2024/04/13 06:16:06;;;;;;;5.97;3.03;;;;;;;;;;5344162;26;20291;-56
2024/04/13 06:18:32;;;;;;;3.13;2.83;;;;;;;;;;5342974;26;20480;-54
2024/04/13 06:21:02;;;;;;;3.13;2.93;;;;;;;;;;5336761;26;20269;-54
2024/04/13 06:23:28;;;;;;;3.10;2.80;;;;;;;;;;5341154;26;20476;-53
2024/04/13 06:25:53;;;;;;;4.50;3.40;;;;;;;;;;5346565;26;20908;-54
2024/04/13 06:28:20;;;;;;;3.50;3.17;;;;;;;;;;5337567;26;20560;-53
2024/04/13 06:30:46;;;;;;;8.30;4.20;;;;;;;;;;5336361;26;20559;-55
2024/04/13 06:33:12;;;;;;;4.10;3.20;;;;;;;;;;5351237;26;21039;-54
2024/04/13 06:35:39;;;;;;;4.10;3.20;;;;;;;;;;5339555;26;20253;-55
2024/04/13 06:38:04;;;;;;;3.03;2.83;;;;;;;;;;5345799;26;20288;-55
2024/04/13 06:40:30;;;;;;;3.60;2.70;;;;;;;;;;5347143;26;21092;-56
2024/04/13 06:42:55;;;;;;;3.50;3.30;;;;;;;;;;5357939;26;20269;-53
2024/04/13 06:45:21;;;;;;;5.00;3.17;;;;;;;;;;5341192;26;20277;-54
2024/04/13 06:47:46;;;;;;;2.53;2.43;;;;;;;;;;5340571;26;20639;-54
2024/04/13 06:50:11;;;;;;;2.63;2.53;;;;;;;;;;5340015;26;20246;-55
2024/04/13 06:52:37;;;;;;;2.90;2.70;;;;;;;;;;5339516;26;20284;-55
2024/04/13 06:55:02;;;;;;;3.73;3.40;;;;;;;;;;5335220;26;20238;-54
2024/04/13 06:57:28;;;;;;;4.60;3.17;;;;;;;;;;5335584;26;20683;-53
2024/04/13 06:59:53;;;;;;;3.37;3.07;;;;;;;;;;5334992;26;20292;-55
2024/04/13 07:02:21;;;;;;;3.13;2.93;;;;;;;;;;5335091;26;20277;-53
2024/04/13 07:04:47;;;;;;;3.37;3.03;;;;;;;;;;5335584;26;20396;-55
2024/04/13 07:07:13;;;;;;;3.20;2.80;;;;;;;;;;5336308;26;20543;-57
2024/04/13 07:09:40;;;;;;;2.90;2.70;;;;;;;;;;5338795;26;20241;-54
2024/04/13 07:12:05;;;;;;;7.67;3.33;;;;;;;;;;5338548;26;20857;-53
2024/04/13 07:14:32;;;;;;;4.93;2.90;;;;;;;;;;5339119;26;20512;-53
2024/04/13 07:16:57;;;;;;;2.47;2.37;;;;;;;;;;5353277;26;20371;-54
2024/04/13 07:19:24;;;;;;;9.23;2.90;;;;;;;;;;5373805;26;20458;-55
2024/04/13 07:21:49;;;;;;;7.03;3.20;;;;;;;;;;5357309;26;20548;-55
2024/04/13 07:24:15;;;;;;;10.77;3.10;;;;;;;;;;5338884;26;20242;-55
2024/04/13 07:26:40;;;;;;;3.40;2.53;;;;;;;;;;5338772;26;20234;-54
2024/04/13 07:29:05;;;;;;;5.17;2.73;;;;;;;;;;5338440;26;20242;-55
2024/04/13 07:31:31;;;;;;;6.60;3.10;;;;;;;;;;5337834;26;20841;-55
2024/04/13 07:33:57;;;;;;;3.47;2.37;;;;;;;;;;5338696;26;20665;-55
2024/04/13 07:36:24;;;;;;;19.43;2.90;;;;;;;;;;5338173;26;20280;-55
2024/04/13 07:38:50;;;;;;;3.70;3.17;;;;;;;;;;5338291;26;20472;-54
2024/04/13 07:41:16;;;;;;;2.67;2.47;;;;;;;;;;5337399;26;20273;-54
2024/04/13 07:43:41;;;;;;;19.70;2.33;;;;;;;;;;5352412;26;20531;-53
2024/04/13 07:46:08;;;;;;;6.00;2.50;;;;;;;;;;5337545;26;20249;-55
2024/04/13 07:48:33;;;;;;;2.63;2.43;;;;;;;;;;5338491;26;20532;-55
2024/04/13 07:50:58;;;;;;;2.57;2.37;;;;;;;;;;5336219;26;20304;-54
2024/04/13 07:53:25;;;;;;;13.53;2.63;;;;;;;;;;5338073;26;20301;-56
2024/04/13 07:55:50;;;;;;;6.53;2.60;;;;;;;;;;5338240;26;20276;-55
2024/04/13 07:58:16;;;;;;;6.40;3.03;;;;;;;;;;5338342;26;21033;-54
2024/04/13 08:00:41;;;;;;;5.17;2.33;;;;;;;;;;5337979;26;20638;-55
2024/04/13 08:03:06;;;;;;;5.60;2.43;;;;;;;;;;5337821;26;20320;-56
2024/04/13 08:05:32;;;;;;;3.80;2.63;;;;;;;;;;5338599;26;20584;-54
2024/04/13 08:07:57;;;;;;;5.40;2.77;;;;;;;;;;5337974;26;20284;-56
2024/04/13 08:10:23;;;;;;;4.37;2.60;;;;;;;;;;5337532;26;20298;-54
2024/04/13 08:12:50;;;;;;;5.83;2.53;;;;;;;;;;5337660;26;21066;-54
2024/04/13 08:15:16;;;;;;;2.10;2.00;;;;;;;;;;5338411;26;20316;-56
2024/04/13 08:17:43;;;;;;;3.17;2.97;;;;;;;;;;5337803;26;20475;-54
2024/04/13 08:20:09;;;;;;;6.50;2.30;;;;;;;;;;5335847;26;20241;-55
2024/04/13 08:22:35;;;;;;;1.80;1.70;;;;;;;;;;5337814;26;20535;-54
2024/04/13 08:25:00;;;;;;;1.70;1.60;;;;;;;;;;5337769;26;20523;-55
2024/04/13 08:27:26;;;;;;;4.30;1.80;;;;;;;;;;5337981;26;20253;-57
2024/04/13 08:29:53;;;;;;;2.20;1.83;;;;;;;;;;5337400;26;20324;-55
2024/04/13 08:32:18;;;;;;;4.90;1.70;;;;;;;;;;5336948;26;20483;-57
2024/04/13 08:34:43;;;;;;;1.87;1.77;;;;;;;;;;5337365;26;20245;-57
2024/04/13 08:37:09;;;;;;;1.97;1.87;;;;;;;;;;5337869;26;20257;-55
2024/04/13 08:39:37;;;;;;;5.00;2.10;;;;;;;;;;5337298;26;20821;-55
2024/04/13 08:42:06;;;;;;;4.30;2.00;;;;;;;;;;5335716;26;20347;-54
2024/04/13 08:44:31;;;;;;;2.73;1.87;;;;;;;;;;5360138;26;20605;-54
2024/04/13 08:46:59;;;;;;;1.80;1.70;;;;;;;;;;5341857;26;20472;-54
2024/04/13 08:49:29;;;;;;;2.33;1.80;;;;;;;;;;5337303;26;20253;-56
2024/04/13 08:51:55;;;;;;;3.07;2.00;;;;;;;;;;5336034;26;20580;-55
2024/04/13 08:54:20;;;;;;;3.63;1.70;;;;;;;;;;5337185;26;21212;-54
2024/04/13 08:56:47;;;;;;;10.23;1.80;;;;;;;;;;5336899;26;20253;-55
2024/04/13 08:59:13;;;;;;;2.73;1.77;;;;;;;;;;5337162;26;20234;-54
2024/04/13 09:01:42;;;;;;;3.27;1.90;;;;;;;;;;5336131;26;21056;-55
2024/04/13 09:04:08;;;;;;;3.57;1.90;;;;;;;;;;5370139;26;20482;-53
2024/04/13 09:06:33;;;;;;;2.07;1.97;;;;;;;;;;5372049;26;20957;-54
2024/04/13 09:09:08;;;;;;;2.50;1.73;;;;;;;;;;5355351;26;20406;-55
2024/04/13 09:11:35;;;;;;;1.97;1.87;;;;;;;;;;5335830;26;20796;-56
2024/04/13 09:14:00;;;;;;;1.80;1.70;;;;;;;;;;5336852;26;20790;-54
2024/04/13 09:16:26;;;;;;;2.70;2.00;;;;;;;;;;5337671;26;20536;-54
2024/04/13 09:18:51;;;;;;;3.43;1.70;;;;;;;;;;5334733;26;20347;-54
2024/04/13 09:21:17;;;;;;;2.13;1.80;;;;;;;;;;5335963;26;20315;-57
2024/04/13 09:23:43;;;;;;;2.47;1.83;;;;;;;;;;5336356;26;20249;-55
2024/04/13 09:26:09;;;;;;;7.83;2.00;;;;;;;;;;5337110;26;20535;-55
2024/04/13 09:28:38;;;;;;;1.80;1.70;;;;;;;;;;5336163;26;20826;-55
2024/04/13 09:31:04;;;;;;;6.63;2.03;;;;;;;;;;5335411;26;21152;-55
2024/04/13 09:33:30;;;;;;;5.67;2.10;;;;;;;;;;5336292;26;20460;-53
2024/04/13 09:35:58;;;;;;;1.60;1.60;;;;;;;;;;5336695;26;20456;-54
2024/04/13 09:38:24;;;;;;;3.00;2.13;;;;;;;;;;5336580;26;21067;-54
2024/04/13 09:40:59;;;;;;;4.97;1.97;;;;;;;;;;5333720;26;20499;-55
2024/04/13 09:43:24;;;;;;;3.77;2.23;;;;;;;;;;5336397;26;20253;-54
2024/04/13 09:45:56;;;;;;;2.13;1.93;;;;;;;;;;5336559;26;20529;-53
2024/04/13 09:48:22;;;;;;;2.70;2.30;;;;;;;;;;5336106;26;20234;-55
2024/04/13 09:50:47;;;;;;;3.60;2.00;;;;;;;;;;5333598;26;20579;-55
2024/04/13 09:53:13;;;;;;;2.53;2.30;;;;;;;;;;5335942;26;20237;-55
2024/04/13 09:55:38;;;;;;;2.80;2.07;;;;;;;;;;5336151;26;20338;-55
2024/04/13 09:58:04;;;;;;;4.00;2.00;;;;;;;;;;5336151;26;20244;-55
2024/04/13 10:00:29;;;;;;;2.33;2.20;;;;;;;;;;5335456;26;20548;-54
2024/04/13 10:02:57;;;;;;;6.10;2.40;;;;;;;;;;5335809;26;20497;-55
2024/04/13 10:05:23;;;;;;;6.03;2.80;;;;;;;;;;5336612;26;20595;-54
2024/04/13 10:07:49;;;;;;;5.63;2.60;;;;;;;;;;5336580;26;21220;-54
2024/04/13 10:10:16;;;;;;;2.37;2.17;;;;;;;;;;5335836;26;20632;-54
2024/04/13 10:12:44;;;;;;;11.87;2.57;;;;;;;;;;5335930;26;20480;-52
2024/04/13 10:15:10;;;;;;;2.00;1.90;;;;;;;;;;5354121;26;20550;-54
2024/04/13 10:17:38;;;;;;;5.83;2.30;;;;;;;;;;5370915;26;20471;-55
2024/04/13 10:20:03;;;;;;;6.23;2.57;;;;;;;;;;5352773;26;20245;-56
2024/04/13 10:22:31;;;;;;;4.07;2.67;;;;;;;;;;5336044;26;20545;-53
2024/04/13 10:25:02;;;;;;;4.00;2.40;;;;;;;;;;5336529;26;20242;-54
2024/04/13 10:27:31;;;;;;;4.63;2.23;;;;;;;;;;5336227;26;20464;-56
2024/04/13 10:29:59;;;;;;;2.23;2.03;;;;;;;;;;5335584;26;20543;-55
2024/04/13 10:32:24;;;;;;;3.63;2.33;;;;;;;;;;5333278;26;20582;-54
2024/04/13 10:34:50;;;;;;;2.60;2.40;;;;;;;;;;5336250;26;21011;-57
2024/04/13 10:37:22;;;;;;;2.17;2.03;;;;;;;;;;5336050;26;20315;-54
2024/04/13 10:40:01;;;;;;;3.80;2.47;;;;;;;;;;5335892;26;20480;-53
2024/04/13 10:42:34;;;;;;;2.60;2.17;;;;;;;;;;5335025;26;20907;-54
2024/04/13 10:45:03;;;;;;;5.80;3.00;;;;;;;;;;5339336;26;20559;-53
2024/04/13 10:47:29;;;;;;;3.47;2.30;;;;;;;;;;5339136;26;20484;-53
2024/04/13 10:49:56;;;;;;;4.17;2.90;;;;;;;;;;5353264;26;20466;-53
2024/04/13 10:52:21;;;;;;;7.03;2.37;;;;;;;;;;5338538;26;20539;-54
2024/04/13 10:54:56;;;;;;;3.20;2.30;;;;;;;;;;5339099;26;20468;-55
2024/04/13 10:57:23;;;;;;;2.73;2.50;;;;;;;;;;5339029;26;20331;-53
2024/04/13 10:59:50;;;;;;;4.60;2.83;;;;;;;;;;5338447;26;20558;-56
2024/04/13 11:02:15;;;;;;;2.80;2.60;;;;;;;;;;5337401;26;20607;-55
2024/04/13 11:04:43;;;;;;;4.80;3.03;;;;;;;;;;5351471;26;20487;-55
2024/04/13 11:07:10;;;;;;;3.20;2.83;;;;;;;;;;5372823;26;20589;-55
2024/04/13 11:09:35;;;;;;;3.70;2.60;;;;;;;;;;5373754;26;20286;-54
2024/04/13 11:12:00;;;;;;;2.90;2.60;;;;;;;;;;5341192;26;20504;-54
2024/04/13 11:14:26;;;;;;;3.90;2.50;;;;;;;;;;5339166;26;20636;-54
2024/04/13 11:16:51;;;;;;;3.57;2.60;;;;;;;;;;5336518;26;20328;-55
2024/04/13 11:19:17;;;;;;;3.83;2.70;;;;;;;;;;5337208;26;20308;-53
2024/04/13 11:21:43;;;;;;;5.23;2.20;;;;;;;;;;5337810;26;20273;-53
2024/04/13 11:24:09;;;;;;;6.20;2.03;;;;;;;;;;5338781;26;20300;-54
2024/04/13 11:26:35;;;;;;;7.73;2.33;;;;;;;;;;5338813;26;20242;-56
2024/04/13 11:29:00;;;;;;;2.60;2.30;;;;;;;;;;5365791;26;21106;-55
2024/04/13 11:31:26;;;;;;;8.60;2.30;;;;;;;;;;5338194;26;20276;-54
2024/04/13 11:33:51;;;;;;;4.83;2.47;;;;;;;;;;5338092;26;20338;-54
2024/04/13 11:36:20;;;;;;;9.60;2.47;;;;;;;;;;5338635;26;20781;-54
2024/04/13 11:38:45;;;;;;;10.10;2.70;;;;;;;;;;5338365;26;20237;-56
2024/04/13 11:41:11;;;;;;;3.97;2.57;;;;;;;;;;5337499;26;20597;-55
2024/04/13 11:43:39;;;;;;;2.30;1.87;;;;;;;;;;5337946;26;20475;-54
2024/04/13 11:46:04;;;;;;;3.47;2.37;;;;;;;;;;5338198;26;20296;-54
2024/04/13 11:48:32;;;;;;;2.50;2.03;;;;;;;;;;5336676;26;20523;-56
2024/04/13 11:50:57;;;;;;;2.37;2.17;;;;;;;;;;5337204;26;20554;-55
2024/04/13 11:53:22;;;;;;;8.23;2.20;;;;;;;;;;5338116;26;20983;-54
2024/04/13 11:55:48;;;;;;;6.33;2.63;;;;;;;;;;5338263;26;20256;-54
2024/04/13 11:58:21;;;;;;;1.93;1.83;;;;;;;;;;5352699;26;20283;-55
2024/04/13 12:00:47;;;;;;;2.00;1.77;;;;;;;;;;5349214;26;20314;-55
2024/04/13 12:03:12;;;;;;;2.20;2.00;;;;;;;;;;5372753;26;20463;-55
2024/04/13 12:05:39;;;;;;;3.70;2.00;;;;;;;;;;5360651;26;20245;-55
2024/04/13 12:08:05;;;;;;;1.73;1.63;;;;;;;;;;5336484;26;20286;-54
2024/04/13 12:10:31;;;;;;;1.83;1.73;;;;;;;;;;5336823;26;20491;-54
2024/04/13 12:12:57;;;;;;;3.50;2.30;;;;;;;;;;5338537;26;20271;-55
2024/04/13 12:15:23;;;;;;;2.53;1.63;;;;;;;;;;5337756;26;20460;-54
2024/04/13 12:17:49;;;;;;;4.93;1.97;;;;;;;;;;5338686;26;20864;-55
2024/04/13 12:20:14;;;;;;;1.63;1.60;;;;;;;;;;5357675;26;20787;-53
2024/04/13 12:22:41;;;;;;;3.57;2.10;;;;;;;;;;5346173;26;20471;-56
2024/04/13 12:25:07;;;;;;;3.37;2.27;;;;;;;;;;5337908;26;20242;-55
2024/04/13 12:27:33;;;;;;;1.63;1.57;;;;;;;;;;5360751;26;21066;-55
2024/04/13 12:29:59;;;;;;;2.00;1.57;;;;;;;;;;5339394;26;20535;-54
2024/04/13 12:32:24;;;;;;;2.57;1.90;;;;;;;;;;5336811;26;20499;-55
2024/04/13 12:34:49;;;;;;;1.53;1.33;;;;;;;;;;5338059;26;20691;-55
2024/04/13 12:37:17;;;;;;;1.70;1.60;;;;;;;;;;5336500;26;20750;-55
2024/04/13 12:39:44;;;;;;;2.03;1.83;;;;;;;;;;5337829;26;20246;-55
2024/04/13 12:42:10;;;;;;;1.67;1.57;;;;;;;;;;5336438;26;20495;-54
2024/04/13 12:44:36;;;;;;;1.87;1.20;;;;;;;;;;5338181;26;20526;-56
2024/04/13 12:47:02;;;;;;;3.17;1.80;;;;;;;;;;5350554;26;20684;-55
2024/04/13 12:49:27;;;;;;;1.70;1.60;;;;;;;;;;5337662;26;20524;-53
2024/04/13 12:51:53;;;;;;;2.03;1.90;;;;;;;;;;5336011;26;20269;-55
2024/04/13 12:54:18;;;;;;;1.83;1.60;;;;;;;;;;5337364;26;20722;-55
2024/04/13 12:56:44;;;;;;;1.50;1.40;;;;;;;;;;5336980;26;20300;-54
2024/04/13 12:59:09;;;;;;;5.07;2.40;;;;;;;;;;5337269;26;20245;-53
2024/04/13 13:01:34;;;;;;;1.50;1.40;;;;;;;;;;5336195;26;20598;-55
2024/04/13 13:04:01;;;;;;;2.30;2.07;;;;;;;;;;5336776;26;20241;-54
2024/04/13 13:06:26;;;;;;;2.60;1.77;;;;;;;;;;5343631;26;20660;-54
2024/04/13 13:08:53;;;;;;;2.07;1.90;;;;;;;;;;5340922;26;20467;-54
2024/04/13 13:11:18;;;;;;;3.73;1.70;;;;;;;;;;5371186;26;20490;-54
2024/04/13 13:13:44;;;;;;;3.53;1.80;;;;;;;;;;5344337;26;21062;-53
2024/04/13 13:16:09;;;;;;;12.80;2.10;;;;;;;;;;5335678;26;20806;-55
2024/04/13 13:18:34;;;;;;;6.97;1.70;;;;;;;;;;5336994;26;20241;-54
2024/04/13 13:21:00;;;;;;;2.17;1.97;;;;;;;;;;5333856;26;20277;-54
2024/04/13 13:23:26;;;;;;;1.67;1.57;;;;;;;;;;5336639;26;20245;-56
2024/04/13 13:25:51;;;;;;;1.63;1.53;;;;;;;;;;5337179;26;20350;-55
2024/04/13 13:28:17;;;;;;;1.70;1.60;;;;;;;;;;5336797;26;20245;-54
2024/04/13 13:30:43;;;;;;;7.90;1.37;;;;;;;;;;5336176;26;20269;-53
2024/04/13 13:33:08;;;;;;;1.33;1.23;;;;;;;;;;5336559;26;22449;-54
2024/04/13 13:35:34;;;;;;;1.47;1.37;;;;;;;;;;5336909;26;20237;-54
2024/04/13 13:38:01;;;;;;;1.87;1.60;;;;;;;;;;5336112;26;20242;-55
2024/04/13 13:40:27;;;;;;;1.93;1.70;;;;;;;;;;5334445;26;20504;-54
2024/04/13 13:42:52;;;;;;;2.60;2.10;;;;;;;;;;5335779;26;21311;-54
2024/04/13 13:45:17;;;;;;;3.90;1.50;;;;;;;;;;5336745;26;20276;-54
2024/04/13 13:47:43;;;;;;;2.00;1.53;;;;;;;;;;5336457;26;20801;-54
2024/04/13 13:50:08;;;;;;;4.63;1.60;;;;;;;;;;5362509;26;20279;-55
2024/04/13 13:52:33;;;;;;;5.03;1.70;;;;;;;;;;5336080;26;20715;-55
2024/04/13 13:54:59;;;;;;;1.90;1.80;;;;;;;;;;5336605;26;20293;-56
2024/04/13 13:57:26;;;;;;;2.53;1.60;;;;;;;;;;5335719;26;20245;-54
2024/04/13 13:59:52;;;;;;;3.63;1.33;;;;;;;;;;5336265;26;20249;-55
2024/04/13 14:02:19;;;;;;;2.00;1.20;;;;;;;;;;5334632;26;20535;-54
2024/04/13 14:04:47;;;;;;;1.43;1.33;;;;;;;;;;5334231;26;20288;-55
2024/04/13 14:07:13;;;;;;;5.13;1.33;;;;;;;;;;5363220;26;20464;-54
2024/04/13 14:09:39;;;;;;;4.43;1.50;;;;;;;;;;5335877;26;20585;-54
2024/04/13 14:12:05;;;;;;;1.93;1.50;;;;;;;;;;5335284;26;20340;-54
2024/04/13 14:14:31;;;;;;;1.10;0.90;;;;;;;;;;5336564;26;20931;-55
2024/04/13 14:16:59;;;;;;;5.10;1.57;;;;;;;;;;5332837;26;20245;-56
2024/04/13 14:19:24;;;;;;;8.23;1.87;;;;;;;;;;5335114;26;20245;-54
2024/04/13 14:21:50;;;;;;;3.10;1.37;;;;;;;;;;5335549;26;20503;-54
2024/04/13 14:24:18;;;;;;;1.47;1.47;;;;;;;;;;5355192;26;20466;-54
2024/04/13 14:26:44;;;;;;;4.43;1.33;;;;;;;;;;5371253;26;20236;-55
2024/04/13 14:29:09;;;;;;;2.73;0.97;;;;;;;;;;5351301;26;20515;-54
2024/04/13 14:31:34;;;;;;;0.80;0.80;;;;;;;;;;5335175;26;20328;-55
2024/04/13 14:34:01;;;;;;;3.03;1.20;;;;;;;;;;5335627;26;20328;-56
2024/04/13 14:36:26;;;;;;;1.17;1.10;;;;;;;;;;5357479;26;20466;-54